KCBE/CBE METAR and TAF weather

Enter ICAO airport designator
Station Type Date Time Source
KCBE METAR 2022/06/28 15:10 UTC NOAA

KCBE 281510Z AUTO 00000KT 10SM CLR 22/11 A3028 RMK AO2 T02220109


Station Type Date Time Source
KCBE Decoded METAR 2022/06/28 15:10 UTC NOAA

Cumberland, Greater Cumberland Regional Airport, MD, United States (KCBE) 39-36-55N 078-45-39W
Jun 28, 2022 - 11:10 AM EDT / 2022.06.28 1510 UTC
Wind: Calm:0
Visibility: 10 mile(s):0
Sky conditions: clear
Temperature: 72.0 F (22.2 C)
Dew Point: 51.6 F (10.9 C)
Relative Humidity: 48%
Pressure (altimeter): 30.28 in. Hg (1025 hPa)
ob: KCBE 281510Z AUTO 00000KT 10SM CLR 22/11 A3028 RMK AO2 T02220109
cycle: 15

Station Type Date Time Source
KCBE TAF UTC NOAA

Error!

Example: see airport list